This demonstration page uses our WeatherBlox Daily Observations layout. Learn more.

38.89511, -77.03637

Hourly Observations for December 8, 2018

Temp ( °F °C ) Dew Point ( °F °C ) Humidity (%) Winds ( mph kmh ) Pressure ( in mb ) Visibility ( mi km ) Precip ( " mm )
12:52 am 00:52 Mostly Clear 32 0 17 -8.3 54 54 NE 3 6 30.48 1032 10 16.09344 0 0
1:52 am 01:52 Partly Cloudy 33 0.6 18 -7.8 54 54 ENE 3 6 30.48 1032 10 16.09344 0 0
2:52 am 02:52 Mostly Cloudy 32 0 19 -7.2 59 59 Calm 30.48 1032 10 16.09344 0 0
3:52 am 03:52 Partly Cloudy 30 -1.1 20 -6.7 66 66 Calm 30.48 1032 10 16.09344 0 0
4:52 am 04:52 Cloudy 30 -1.1 21 -6.1 69 69 Calm 30.5 1033 10 16.09344 0 0
5:52 am 05:52 Mostly Cloudy 29 -1.7 21 -6.1 72 72 Calm 30.5 1033 10 16.09344 0 0
6:52 am 06:52 Mostly Cloudy 28 -2.2 20 -6.7 72 72 N 3 6 30.5 1033 10 16.09344 0 0
7:52 am 07:52 Mostly Cloudy 28 -2.2 20 -6.7 72 72 Calm 30.5 1033 10 16.09344 0 0
8:52 am 08:52 Mostly Cloudy 31 -0.6 21 -6.1 67 67 Calm 30.53 1034 10 16.09344 0 0
9:52 am 09:52 Mostly Cloudy 35 1.7 20 -6.7 54 54 WNW 6 9 30.59 1036 10 16.09344 0 0
10:52 am 10:52 Mostly Cloudy 38 3.3 20 -6.7 48 48 N 13 20 30.56 1035 10 16.09344 0 0
11:52 am 11:52 Mostly Cloudy 40 4.4 17 -8.3 40 40 NW 10 17 30.53 1034 10 16.09344 0 0
12:52 pm 12:52 Mostly Cloudy 39 3.9 14 -10 36 36 NW 15 24 30.5 1033 10 16.09344 0 0
1:52 pm 13:52 Mostly Cloudy 38 3.3 16 -8.9 41 41 NNW 14 22 30.5 1033 10 16.09344 0 0
2:52 pm 14:52 Cloudy 38 3.3 16 -8.9 41 41 NNW 12 19 30.5 1033 10 16.09344 0 0
3:52 pm 15:52 Cloudy 37 2.8 15 -9.4 41 41 NW 12 19 30.5 1033 10 16.09344 0 0
4:52 pm 16:52 Cloudy 36 2.2 15 -9.4 42 42 NNW 10 17 30.5 1033 10 16.09344 0 0
5:52 pm 17:52 Cloudy 36 2.2 16 -8.9 44 44 NNW 9 15 30.53 1034 10 16.09344 0 0
6:52 pm 18:52 Cloudy 35 1.7 17 -8.3 48 48 N 7 11 30.53 1034 10 16.09344 0 0
7:52 pm 19:52 Cloudy 35 1.7 17 -8.3 48 48 NNW 9 15 30.56 1035 10 16.09344 0 0
8:52 pm 20:52 Cloudy 34 1.1 17 -8.3 50 50 N 7 11 30.56 1035 10 16.09344 0 0
9:52 pm 21:52 Cloudy 34 1.1 17 -8.3 50 50 N 7 11 30.56 1035 10 16.09344 0 0
10:52 pm 22:52 Cloudy 34 1.1 17 -8.3 50 50 NNE 13 20 30.56 1035 10 16.09344 0 0
11:52 pm 23:52 Cloudy 34 1.1 17 -8.3 50 50 N 12 19 30.56 1035 10 16.09344 0 0

Powered by AerisWeather